Flight Track Log - Related Links

Times and Time Zones

All times are in EDT time to prevent confusion due to time zone crossing. See the VNR161 flight status page for this flight to view local times or setup timezone preferences in your user account.

Time Position Orientation Groundspeed Altitude Reporting Facility
EDT Latitude Longitude Course Direction KTS MPH feet Rate Location/Type
Fri 05:07:21 PM 38.6333 -121.4000 149° Southeast 163 188 1,900  Level Northern Cal TRACON
Fri 05:08:15 PM 38.5833 -121.3833 165° South 181 208 3,700 1,706 Climbing Northern Cal TRACON
Fri 05:09:10 PM 38.5631 -121.3386 120° Southeast 191 220 5,000 1,846 Climbing Oakland Center
Fri 05:10:12 PM 38.5278 -121.2764 126° Southeast 210 242 7,300 2,585 Climbing Oakland Center
Fri 05:11:13 PM 38.4850 -121.2000 126° Southeast 220 253 10,300 2,537 Climbing Oakland Center
Fri 05:12:00 PM 38.2664 -121.0963 149° Southeast  Level Estimated
Fri 05:12:15 PM 38.4564 -121.1464 124° Southeast 215 247 12,500  Level Oakland Center
Fri 05:13:16 PM 38.4125 -121.0672 125° Southeast 229 264 14,900 2,146 Climbing Oakland Center
Fri 05:14:18 PM 38.3725 -120.9950 125° Southeast 247 284 16,900 1,805 Climbing Oakland Center
Fri 05:15:19 PM 38.3308 -120.9208 126° Southeast 258 297 18,600 1,805 Climbing Oakland Center
Fri 05:16:21 PM 38.2861 -120.8461 127° Southeast 265 305 20,600 1,805 Climbing Oakland Center
Fri 05:17:22 PM 38.2300 -120.7769 136° Southeast 288 331 22,300 1,707 Climbing Oakland Center
Fri 05:18:24 PM 38.1583 -120.7272 151° Southeast 294 338 24,100 1,610 Climbing Oakland Center
Fri 05:19:25 PM 38.0825 -120.6761 152° Southeast 307 353 25,600 1,512 Climbing Oakland Center
Fri 05:20:27 PM 38.0025 -120.6244 153° Southeast 320 368 27,200 1,597 Climbing Oakland Center
Fri 05:21:29 PM 37.9025 -120.5594 153° Southeast 335 386 28,900 1,452 Climbing Oakland Center
Fri 05:22:31 PM 37.8172 -120.5047 153° Southeast 343 395 30,200 1,171 Climbing Oakland Center
Fri 05:23:32 PM 37.7308 -120.4492 153° Southeast 347 399 31,300 1,024 Climbing Oakland Center
Fri 05:24:34 PM 37.6411 -120.3917 153° Southeast 358 412 32,300 829 Climbing Oakland Center
Fri 05:25:35 PM 37.5511 -120.3350 153° Southeast 362 417 33,000 341 Climbing Oakland Center
Fri 05:26:37 PM 37.4561 -120.2736 153° Southeast 383 441 33,000  Level Oakland Center
Fri 05:27:39 PM 37.3572 -120.2114 153° Southeast 396 456 33,000  Level Oakland Center
Fri 05:28:40 PM 37.2533 -120.1500 155° Southeast 406 467 33,000  Level Oakland Center
Fri 05:29:42 PM 37.1297 -120.0717 153° Southeast 414 476 33,000  Level Oakland Center
Fri 05:30:44 PM 37.0353 -120.0111 153° Southeast 413 475 33,000  Level Oakland Center
Fri 05:31:45 PM 36.9317 -119.9464 153° Southeast 415 478 33,000  Level Oakland Center
Fri 05:32:47 PM 36.8278 -119.8803 153° Southeast 416 479 33,000  Level Oakland Center
Fri 05:33:49 PM 36.7219 -119.8122 153° Southeast 424 488 33,000  Level Oakland Center
Fri 05:34:50 PM 36.5964 -119.7336 153° Southeast 418 481 33,000  Level Oakland Center
Fri 05:35:52 PM 36.4919 -119.6678 153° Southeast 420 483 33,000 -194 Level Oakland Center
Fri 05:36:54 PM 36.3864 -119.6022 153° Southeast 423 487 32,600 -683 Descending Oakland Center
Fri 05:37:55 PM 36.2786 -119.5358 154° Southeast 430 495 31,600 -976 Descending Oakland Center
Fri 05:38:57 PM 36.1703 -119.4689 153° Southeast 434 499 30,600 -968 Descending Oakland Center
Fri 05:39:59 PM 36.0622 -119.4028 154° Southeast 433 498 29,600 -968 Descending Oakland Center
Fri 05:41:01 PM 35.9550 -119.3392 154° Southeast 425 489 28,600 -976 Descending Oakland Center
Fri 05:42:02 PM 35.8475 -119.2742 154° Southeast 424 488 27,600 -1,073 Descending Oakland Center
Fri 05:43:04 PM 35.7222 -119.1978 154° Southeast 421 484 26,400 -1,065 Descending Oakland Center
Fri 05:44:06 PM 35.6225 -119.1378 154° Southeast 408 470 25,400 -931 Descending Oakland Center
Fri 05:45:00 PM 35.5433 -119.0897 154° Southeast 396 456 24,600 -931 Descending Los Angeles Center
Fri 05:46:02 PM 35.4450 -119.0308 154° Southeast 394 453 23,600 -968 Descending Los Angeles Center
Fri 05:47:04 PM 35.3489 -118.9725 154° Southeast 388 447 22,600 -1,065 Descending Los Angeles Center
Fri 05:48:06 PM 35.2356 -118.9039 154° Southeast 381 438 21,400 -1,104 Descending Los Angeles Center
Fri 05:49:09 PM 35.1406 -118.8489 155° Southeast 378 435 20,300 -1,296 Descending Los Angeles Center
Fri 05:50:11 PM 35.0528 -118.7961 154° Southeast 355 409 18,700 -1,452 Descending Los Angeles Center
Fri 05:51:13 PM 34.9700 -118.7469 154° Southeast 335 386 17,300 -1,500 Descending Los Angeles Center
Fri 05:52:15 PM 34.8781 -118.6942 155° Southeast 336 387 15,600 -1,597 Descending Los Angeles Center
Fri 05:53:17 PM 34.7969 -118.6458 154° Southeast 324 373 14,000 -1,210 Descending Los Angeles Center
Fri 05:54:19 PM 34.7211 -118.6000 154° Southeast 301 346 13,100 -435 Descending Los Angeles Center
Fri 05:55:21 PM 34.6442 -118.5550 154° Southeast 311 358 13,100 -145 Level Los Angeles Center
Fri 05:56:23 PM 34.5506 -118.4994 154° Southeast 315 362 12,800 -484 Descending Los Angeles Center
Fri 05:57:25 PM 34.4733 -118.4547 154° Southeast 308 354 12,100 -532 Descending Los Angeles Center
Fri 05:58:27 PM 34.3964 -118.4100 154° Southeast 304 350 11,700 -532 Descending Los Angeles Center
Fri 05:59:29 PM 34.3242 -118.3675 154° Southeast 292 336 11,000 -336 Descending Los Angeles Center
Fri 06:00:32 PM 34.2503 -118.3231 154° Southeast 293 337 11,000  Level Los Angeles Center
Fri 06:01:34 PM 34.1719 -118.2781 155° Southeast 306 352 11,000  Level Los Angeles Center
Fri 06:02:36 PM 34.0803 -118.2247 154° Southeast 305 351 11,000 -339 Level Los Angeles Center
Fri 06:03:38 PM 34.0036 -118.1803 154° Southeast 304 350 10,300 -823 Descending Los Angeles Center
Fri 06:04:40 PM 33.9256 -118.1392 156° South 304 350 9,300 -968 Descending Los Angeles Center
Fri 06:05:42 PM 33.8425 -118.1439 183° South 295 339 8,300 -823 Descending Los Angeles Center
Fri 06:06:44 PM 33.7625 -118.1689 195° South 293 337 7,600 -823 Descending Los Angeles Center
Fri 06:07:46 PM 33.6883 -118.1417 163° South 285 328 6,600 -1,049 Descending Los Angeles Center
Fri 06:08:27 PM 33.6500 -118.1000 138° Southeast 276 318 5,800 -950 Descending Southern California TRACON
Fri 06:09:27 PM 33.6500 -118.0000 90° East 262 302 5,000 -400 Descending Southern California TRACON
Fri 06:10:27 PM 33.6667 -117.9500 68° East 200 230 5,000  Level Southern California TRACON
Fri 06:11:27 PM 33.7167 -117.9333 15° North 189 217 5,000 -500 Level Southern California TRACON
Fri 06:12:27 PM 33.7667 -117.9000 29° Northeast 188 216 4,000 -1,000 Descending Southern California TRACON
Fri 06:13:27 PM 33.8000 -117.8500 51° Northeast 199 229 3,000 -500 Descending Southern California TRACON
Fri 06:14:27 PM 33.7833 -117.8167 121° Southeast 157 181 3,000 -350 Level Southern California TRACON
Fri 06:15:27 PM 33.7500 -117.8333 203° Southwest 141 162 2,300 -1,050 Descending Southern California TRACON
Fri 06:16:27 PM 33.7000 -117.8500 195° South 149 171 900 -1,400 Descending Southern California TRACON

Login

Don't have an account? Register now (free) for customized features, flight alerts, and more!